createdAt,value
2019-06-26T00:01:29.285Z,27.30
2019-06-26T00:04:01.500Z,27.30
2019-06-26T00:06:33.812Z,27.30
2019-06-26T00:09:08.361Z,27.30
2019-06-26T00:11:40.836Z,27.30
2019-06-26T00:14:13.227Z,27.20
2019-06-26T00:16:45.477Z,27.20
2019-06-26T00:19:17.869Z,27.20
2019-06-26T00:21:50.281Z,27.20
2019-06-26T00:24:22.491Z,27.10
2019-06-26T00:26:54.800Z,27.10
2019-06-26T00:29:27.005Z,27.10
2019-06-26T00:31:59.242Z,27.10
2019-06-26T00:34:32.605Z,27.10
2019-06-26T00:37:04.957Z,27.00
2019-06-26T00:39:37.238Z,27.00
2019-06-26T00:42:09.583Z,27.00
2019-06-26T00:44:41.877Z,27.00
2019-06-26T00:47:14.167Z,26.90
2019-06-26T00:49:46.481Z,27.00
2019-06-26T00:52:18.823Z,26.90
2019-06-26T00:54:51.037Z,26.90
2019-06-26T00:57:24.344Z,26.90
2019-06-26T00:59:56.730Z,26.90
2019-06-26T01:02:29.040Z,26.90
2019-06-26T01:05:02.857Z,26.90
2019-06-26T01:07:35.091Z,26.90
2019-06-26T01:10:07.607Z,26.90
2019-06-26T01:12:39.921Z,26.90
2019-06-26T01:15:12.303Z,26.90
2019-06-26T01:17:44.609Z,26.90
2019-06-26T01:20:16.970Z,26.80
2019-06-26T01:22:49.209Z,26.80
2019-06-26T01:25:21.483Z,26.80
2019-06-26T01:27:53.723Z,26.80
2019-06-26T01:30:26.076Z,26.80
2019-06-26T01:32:58.569Z,26.80
2019-06-26T01:35:30.875Z,26.70
2019-06-26T01:38:03.042Z,26.70
2019-06-26T01:40:35.378Z,26.70
2019-06-26T01:43:07.715Z,26.70
2019-06-26T01:45:40.038Z,26.70
2019-06-26T01:48:13.504Z,26.70
2019-06-26T01:50:45.663Z,26.70
2019-06-26T01:53:18.053Z,26.70
2019-06-26T01:55:50.288Z,26.60
2019-06-26T01:58:22.533Z,26.60
2019-06-26T02:00:54.750Z,26.60
2019-06-26T02:03:27.088Z,26.60
2019-06-26T02:05:59.321Z,26.60
2019-06-26T02:08:31.656Z,26.60
2019-06-26T02:11:04.025Z,26.60
2019-06-26T02:13:36.284Z,26.50
2019-06-26T02:16:08.509Z,26.50
2019-06-26T02:18:46.340Z,26.50
2019-06-26T02:21:18.640Z,26.50
2019-06-26T02:23:50.808Z,26.50
2019-06-26T02:26:23.105Z,26.50
2019-06-26T02:28:55.441Z,26.50
2019-06-26T02:31:27.692Z,26.50
2019-06-26T02:34:00.093Z,26.50
2019-06-26T02:36:32.390Z,26.50
2019-06-26T02:39:06.068Z,26.50
2019-06-26T02:41:38.448Z,26.50
2019-06-26T02:44:10.682Z,26.40
2019-06-26T02:46:43.001Z,26.50
2019-06-26T02:49:15.243Z,26.40
2019-06-26T02:51:47.483Z,26.40
2019-06-26T02:54:19.715Z,26.40
2019-06-26T02:56:51.937Z,26.40
2019-06-26T02:59:24.186Z,26.40
2019-06-26T03:01:56.561Z,26.30
2019-06-26T03:04:28.882Z,26.30
2019-06-26T03:07:01.114Z,26.30
2019-06-26T03:09:33.485Z,26.30
2019-06-26T03:12:05.782Z,26.30
2019-06-26T03:14:38.040Z,26.30
2019-06-26T03:17:10.203Z,26.30
2019-06-26T03:19:42.550Z,26.30
2019-06-26T03:22:14.849Z,26.30
2019-06-26T03:24:47.176Z,26.20
2019-06-26T03:27:19.591Z,26.20
2019-06-26T03:29:51.773Z,26.20
2019-06-26T03:32:23.996Z,26.20
2019-06-26T03:34:56.334Z,26.20
2019-06-26T03:37:28.710Z,26.20
2019-06-26T03:40:01.173Z,26.20
2019-06-26T03:42:33.681Z,26.20
2019-06-26T03:45:07.554Z,26.20
2019-06-26T03:47:39.935Z,26.20
2019-06-26T03:50:12.356Z,26.20
2019-06-26T03:52:44.682Z,26.20
2019-06-26T03:55:16.945Z,26.10
2019-06-26T03:57:49.189Z,26.10
2019-06-26T04:00:36.683Z,26.10
2019-06-26T04:03:09.234Z,26.10
2019-06-26T04:05:41.453Z,26.10
2019-06-26T04:08:13.617Z,26.10
2019-06-26T04:10:46.014Z,26.10
2019-06-26T04:13:18.396Z,26.10
2019-06-26T04:15:51.165Z,26.10
2019-06-26T04:18:23.511Z,26.20
2019-06-26T04:20:55.834Z,26.10
2019-06-26T04:23:27.995Z,26.20
2019-06-26T04:26:00.315Z,26.20
2019-06-26T04:28:32.613Z,26.20
2019-06-26T04:31:05.002Z,26.20
2019-06-26T04:33:37.155Z,26.20
2019-06-26T04:36:09.468Z,26.20
2019-06-26T04:38:41.716Z,26.20
2019-06-26T04:41:13.884Z,26.20
2019-06-26T04:43:46.126Z,26.20
2019-06-26T04:46:18.448Z,26.20
2019-06-26T04:48:51.003Z,26.20
2019-06-26T04:51:23.377Z,26.20
2019-06-26T04:53:55.891Z,26.30
2019-06-26T04:56:28.237Z,26.30
2019-06-26T04:59:00.391Z,26.30
2019-06-26T05:01:32.763Z,26.30
2019-06-26T05:04:05.143Z,26.30
2019-06-26T05:06:37.524Z,26.30
2019-06-26T05:09:10.037Z,26.40
2019-06-26T05:11:42.273Z,26.40
2019-06-26T05:14:14.571Z,26.40
2019-06-26T05:16:46.969Z,26.40
2019-06-26T05:19:19.247Z,26.40
2019-06-26T05:21:51.561Z,26.40
2019-06-26T05:24:23.888Z,26.50
2019-06-26T05:26:56.220Z,26.50
2019-06-26T05:29:28.609Z,26.50
2019-06-26T05:32:00.880Z,26.50
2019-06-26T05:34:33.260Z,26.60
2019-06-26T05:37:05.580Z,26.60
2019-06-26T05:39:38.026Z,26.60
2019-06-26T05:42:10.555Z,26.60
2019-06-26T05:44:42.791Z,26.70
2019-06-26T05:47:15.184Z,26.70
2019-06-26T05:49:47.605Z,26.70
2019-06-26T05:52:20.052Z,26.70
2019-06-26T05:54:52.559Z,26.80
2019-06-26T05:57:24.999Z,26.80
2019-06-26T05:59:57.359Z,26.80
2019-06-26T06:02:29.751Z,26.90
2019-06-26T06:05:02.056Z,26.90
2019-06-26T06:07:34.467Z,27.00
2019-06-26T06:10:07.428Z,27.00
2019-06-26T06:12:39.876Z,27.00
2019-06-26T06:15:12.274Z,27.10
2019-06-26T06:17:45.786Z,27.10
2019-06-26T06:20:26.551Z,27.20
2019-06-26T06:22:59.001Z,27.30
2019-06-26T06:25:31.409Z,27.30
2019-06-26T06:28:03.892Z,27.30
2019-06-26T06:30:37.491Z,27.40
2019-06-26T06:33:09.935Z,27.40
2019-06-26T06:35:42.429Z,27.50
2019-06-26T06:38:14.915Z,27.50
2019-06-26T06:40:47.643Z,27.60
2019-06-26T06:43:20.175Z,27.70
2019-06-26T06:45:52.644Z,27.70
2019-06-26T06:48:25.078Z,27.70
2019-06-26T06:50:57.486Z,27.80
2019-06-26T06:53:29.943Z,27.90
2019-06-26T06:56:02.450Z,27.90
2019-06-26T06:58:34.951Z,28.00
2019-06-26T07:01:07.297Z,28.00
2019-06-26T07:03:39.787Z,28.10
2019-06-26T07:06:12.198Z,28.10
2019-06-26T07:08:44.638Z,28.20
2019-06-26T07:11:17.193Z,28.20
2019-06-26T07:13:49.685Z,28.20
2019-06-26T07:16:22.102Z,28.20
2019-06-26T07:18:54.536Z,28.30
2019-06-26T07:21:27.099Z,28.30
2019-06-26T07:23:59.592Z,28.30
2019-06-26T07:26:32.017Z,28.30
2019-06-26T07:29:04.571Z,28.40
2019-06-26T07:31:38.566Z,28.40
2019-06-26T07:34:11.131Z,28.40
2019-06-26T07:36:43.596Z,28.40
2019-06-26T07:39:16.032Z,28.50
2019-06-26T07:41:48.500Z,28.50
2019-06-26T07:44:20.922Z,28.60
2019-06-26T07:46:53.363Z,28.60
2019-06-26T07:49:25.790Z,28.60
2019-06-26T07:51:58.237Z,28.70
2019-06-26T07:54:30.582Z,28.70
2019-06-26T07:57:03.035Z,28.80
2019-06-26T07:59:35.501Z,28.80
2019-06-26T08:02:08.007Z,28.90
2019-06-26T08:04:40.480Z,28.90
2019-06-26T08:07:12.913Z,28.90
2019-06-26T08:09:45.413Z,28.90
2019-06-26T08:12:17.862Z,28.90
2019-06-26T08:14:50.291Z,29.00
2019-06-26T08:17:23.815Z,29.00
2019-06-26T08:19:56.245Z,29.00
2019-06-26T08:22:28.687Z,29.00
2019-06-26T08:25:01.110Z,29.10
2019-06-26T08:27:33.675Z,29.00
2019-06-26T08:30:06.681Z,29.10
2019-06-26T08:32:39.326Z,29.10
2019-06-26T08:35:11.753Z,29.10
2019-06-26T08:37:44.224Z,29.10
2019-06-26T08:40:16.655Z,29.20
2019-06-26T08:42:49.132Z,29.20
2019-06-26T08:45:21.550Z,29.20
2019-06-26T08:47:54.029Z,29.20
2019-06-26T08:50:26.527Z,29.20
2019-06-26T08:52:59.008Z,29.20
2019-06-26T08:55:31.526Z,29.30
2019-06-26T08:58:04.355Z,29.30
2019-06-26T09:00:36.804Z,29.30
2019-06-26T09:03:09.257Z,29.30
2019-06-26T09:05:47.979Z,29.30
2019-06-26T09:08:16.388Z,29.40
2019-06-26T09:10:48.930Z,29.40
2019-06-26T09:13:21.499Z,29.40
2019-06-26T09:15:53.987Z,29.50
2019-06-26T09:18:35.407Z,29.50
2019-06-26T09:21:01.630Z,29.50
2019-06-26T09:23:34.264Z,29.60
2019-06-26T09:26:07.355Z,29.60
2019-06-26T09:28:39.789Z,29.60
2019-06-26T09:31:13.322Z,29.60
2019-06-26T09:33:45.756Z,29.60
2019-06-26T09:36:18.229Z,29.60
2019-06-26T09:38:50.760Z,29.70
2019-06-26T09:41:23.188Z,29.70
2019-06-26T09:43:55.748Z,29.70
2019-06-26T09:46:28.143Z,29.70
2019-06-26T09:49:00.506Z,29.80
2019-06-26T09:51:32.987Z,29.80
2019-06-26T09:54:05.438Z,29.80
2019-06-26T09:56:37.845Z,29.80
2019-06-26T09:59:10.279Z,29.90
2019-06-26T10:01:44.564Z,29.90
2019-06-26T10:04:16.994Z,29.90
2019-06-26T10:06:49.402Z,30.00
2019-06-26T10:09:21.898Z,30.00
2019-06-26T10:11:54.313Z,30.00
2019-06-26T10:14:45.509Z,30.00
2019-06-26T10:17:01.176Z,30.00
2019-06-26T10:19:33.855Z,30.00
2019-06-26T10:22:06.278Z,30.00
2019-06-26T10:24:38.710Z,30.10
2019-06-26T10:27:11.125Z,30.10
2019-06-26T10:29:43.896Z,30.10
2019-06-26T10:32:16.392Z,30.10
2019-06-26T10:34:48.836Z,30.10
2019-06-26T10:37:21.286Z,30.10
2019-06-26T10:39:53.760Z,30.20
2019-06-26T10:42:26.188Z,30.20
2019-06-26T10:44:58.637Z,30.20
2019-06-26T10:47:31.248Z,30.20
2019-06-26T10:50:04.068Z,30.20
2019-06-26T10:52:36.623Z,30.30
2019-06-26T10:55:09.052Z,30.30
2019-06-26T10:57:41.728Z,30.30
2019-06-26T11:00:14.153Z,30.30
2019-06-26T11:02:46.569Z,30.30
2019-06-26T11:05:18.999Z,30.30
2019-06-26T11:07:51.407Z,30.30
2019-06-26T11:10:23.827Z,30.40
2019-06-26T11:12:56.292Z,30.40
2019-06-26T11:15:28.732Z,30.40
2019-06-26T11:18:01.150Z,30.40
2019-06-26T11:20:33.569Z,30.40
2019-06-26T11:23:06.032Z,30.50
2019-06-26T11:25:38.655Z,30.40
2019-06-26T11:28:14.106Z,30.50
2019-06-26T11:30:46.628Z,30.40
2019-06-26T11:33:19.057Z,30.40
2019-06-26T11:35:51.564Z,30.50
2019-06-26T11:38:23.978Z,30.50
2019-06-26T11:40:56.388Z,30.50
2019-06-26T11:43:28.807Z,30.50
2019-06-26T11:46:01.265Z,30.50
2019-06-26T11:48:33.669Z,30.50
2019-06-26T11:51:06.094Z,30.50
2019-06-26T11:53:38.637Z,30.50
2019-06-26T11:56:11.243Z,30.60
2019-06-26T11:58:43.646Z,30.60
2019-06-26T12:01:16.191Z,30.60
2019-06-26T12:03:48.736Z,30.60
2019-06-26T12:06:21.224Z,30.70
2019-06-26T12:08:53.634Z,30.70
2019-06-26T12:11:26.053Z,30.70
2019-06-26T12:13:58.457Z,30.70
2019-06-26T12:16:30.875Z,30.70
2019-06-26T12:19:03.316Z,30.70
2019-06-26T12:21:35.745Z,30.70
2019-06-26T12:24:08.262Z,30.80
2019-06-26T12:26:40.695Z,30.80
2019-06-26T12:29:13.102Z,30.80
2019-06-26T12:31:45.452Z,30.80
2019-06-26T12:34:17.943Z,30.80
2019-06-26T12:36:50.358Z,30.80
2019-06-26T12:39:22.764Z,30.80
2019-06-26T12:41:55.220Z,30.80
2019-06-26T12:44:27.600Z,30.80
2019-06-26T12:47:01.002Z,30.80
2019-06-26T12:49:33.496Z,30.80
2019-06-26T12:52:05.929Z,30.80
2019-06-26T12:54:39.530Z,30.80
2019-06-26T12:57:12.026Z,30.80
2019-06-26T12:59:56.445Z,30.80
2019-06-26T13:02:18.513Z,30.90
2019-06-26T13:04:50.910Z,30.90
2019-06-26T13:07:23.419Z,30.90
2019-06-26T13:09:55.895Z,30.90
2019-06-26T13:12:28.319Z,30.90
2019-06-26T13:15:00.716Z,30.90
2019-06-26T13:17:33.154Z,30.90
2019-06-26T13:20:09.482Z,30.90
2019-06-26T13:22:40.147Z,30.90
2019-06-26T13:25:16.039Z,30.90
2019-06-26T13:27:48.808Z,30.90
2019-06-26T13:30:31.857Z,30.90
2019-06-26T13:33:04.342Z,30.90
2019-06-26T13:35:36.670Z,31.00
2019-06-26T13:38:09.084Z,30.90
2019-06-26T13:40:41.413Z,30.90
2019-06-26T13:43:13.932Z,31.00
2019-06-26T13:45:46.297Z,31.00
2019-06-26T13:48:19.800Z,31.00
2019-06-26T13:51:07.817Z,31.00
2019-06-26T13:53:26.363Z,31.00
2019-06-26T13:55:58.758Z,31.00
2019-06-26T13:58:31.181Z,31.00
2019-06-26T14:01:03.716Z,31.00
2019-06-26T14:03:36.144Z,31.00
2019-06-26T14:06:08.538Z,31.00
2019-06-26T14:08:40.973Z,31.10
2019-06-26T14:11:13.392Z,31.10
2019-06-26T14:13:45.823Z,31.10
2019-06-26T14:16:18.215Z,31.10
2019-06-26T14:18:50.596Z,31.10
2019-06-26T14:21:26.154Z,31.10
2019-06-26T14:23:57.102Z,31.10
2019-06-26T14:26:29.495Z,31.10
2019-06-26T14:29:01.914Z,31.10
2019-06-26T14:31:34.316Z,31.10
2019-06-26T14:34:06.755Z,31.10
2019-06-26T14:36:39.216Z,31.10
2019-06-26T14:39:12.701Z,31.10
2019-06-26T14:41:45.119Z,31.10
2019-06-26T14:44:17.542Z,31.10
2019-06-26T14:46:49.955Z,31.20
2019-06-26T14:49:22.418Z,31.20
2019-06-26T14:51:54.821Z,31.10
2019-06-26T14:54:27.252Z,31.20
2019-06-26T14:56:59.657Z,31.10
2019-06-26T14:59:33.415Z,31.10
2019-06-26T15:02:05.894Z,31.10
2019-06-26T15:04:38.313Z,31.10
2019-06-26T15:07:10.713Z,31.10
2019-06-26T15:09:43.195Z,31.10
2019-06-26T15:12:15.523Z,31.10
2019-06-26T15:14:47.945Z,31.10
2019-06-26T15:17:20.427Z,31.10
2019-06-26T15:19:52.857Z,31.10
2019-06-26T15:22:26.327Z,31.10
2019-06-26T15:24:58.753Z,31.10
2019-06-26T15:27:31.260Z,31.10
2019-06-26T15:30:03.675Z,31.10
2019-06-26T15:32:36.077Z,31.10
2019-06-26T15:35:08.532Z,31.10
2019-06-26T15:37:44.671Z,31.10
2019-06-26T15:40:15.958Z,31.10
2019-06-26T15:42:49.153Z,31.10
2019-06-26T15:45:21.713Z,31.10
2019-06-26T15:47:54.127Z,31.10
2019-06-26T15:50:26.745Z,31.10
2019-06-26T15:52:59.169Z,31.10
2019-06-26T15:55:31.671Z,31.10
2019-06-26T15:58:04.087Z,31.10
2019-06-26T16:00:36.514Z,31.10
2019-06-26T16:03:08.913Z,31.10
2019-06-26T16:05:41.411Z,31.10
2019-06-26T16:08:13.838Z,31.10
2019-06-26T16:10:46.374Z,31.10
2019-06-26T16:13:18.766Z,31.10
2019-06-26T16:15:51.196Z,31.20
2019-06-26T16:18:34.206Z,31.10
2019-06-26T16:21:07.596Z,31.10
2019-06-26T16:23:39.999Z,31.10
2019-06-26T16:26:12.420Z,31.10
2019-06-26T16:28:45.070Z,31.10
2019-06-26T16:31:17.482Z,31.10
2019-06-26T16:33:49.877Z,31.10
2019-06-26T16:36:22.308Z,31.10
2019-06-26T16:38:54.708Z,31.10
2019-06-26T16:41:27.139Z,31.10
2019-06-26T16:43:59.558Z,31.10
2019-06-26T16:46:32.000Z,31.10
2019-06-26T16:49:04.438Z,31.10
2019-06-26T16:51:36.865Z,31.10
2019-06-26T16:54:09.269Z,31.10
2019-06-26T16:56:41.764Z,31.10
2019-06-26T16:59:14.166Z,31.10
2019-06-26T17:01:46.693Z,31.10
2019-06-26T17:04:19.113Z,31.10
2019-06-26T17:06:51.587Z,31.10
2019-06-26T17:09:24.041Z,31.00
2019-06-26T17:11:56.498Z,31.00
2019-06-26T17:14:28.904Z,31.00
2019-06-26T17:17:01.376Z,31.00
2019-06-26T17:19:33.849Z,31.10
2019-06-26T17:22:07.358Z,31.10
2019-06-26T17:24:39.899Z,31.10
2019-06-26T17:27:12.324Z,31.10
2019-06-26T17:29:44.748Z,31.00
2019-06-26T17:32:17.148Z,31.00
2019-06-26T17:34:49.546Z,31.00
2019-06-26T17:37:21.974Z,31.00
2019-06-26T17:39:54.374Z,31.00
2019-06-26T17:42:26.889Z,31.00
2019-06-26T17:44:59.307Z,31.00
2019-06-26T17:47:31.729Z,31.00
2019-06-26T17:50:04.162Z,31.00
2019-06-26T17:52:38.443Z,31.00
2019-06-26T17:55:10.725Z,31.00
2019-06-26T17:57:43.150Z,31.00
2019-06-26T18:00:17.162Z,31.00
2019-06-26T18:02:49.611Z,31.00
2019-06-26T18:05:22.046Z,31.00
2019-06-26T18:07:54.491Z,31.00
2019-06-26T18:10:26.904Z,31.00
2019-06-26T18:13:00.156Z,31.00
2019-06-26T18:15:32.582Z,30.90
2019-06-26T18:18:05.025Z,30.90
2019-06-26T18:20:37.428Z,30.90
2019-06-26T18:23:09.861Z,30.90
2019-06-26T18:25:43.041Z,30.90
2019-06-26T18:28:15.502Z,30.90
2019-06-26T18:30:47.977Z,30.90
2019-06-26T18:33:20.361Z,30.90
2019-06-26T18:35:52.789Z,30.90
2019-06-26T18:38:25.291Z,30.90
2019-06-26T18:40:57.717Z,30.90
2019-06-26T18:43:30.280Z,30.90
2019-06-26T18:46:02.680Z,30.90
2019-06-26T18:48:35.117Z,30.90
2019-06-26T18:51:07.523Z,30.90
2019-06-26T18:53:52.705Z,30.80
2019-06-26T18:56:15.149Z,30.80
2019-06-26T18:58:47.586Z,30.80
2019-06-26T19:01:20.007Z,30.80
2019-06-26T19:03:52.463Z,30.80
2019-06-26T19:06:24.857Z,30.80
2019-06-26T19:08:57.296Z,30.80
2019-06-26T19:11:29.789Z,30.80
2019-06-26T19:14:02.225Z,30.80
2019-06-26T19:16:36.362Z,30.80
2019-06-26T19:19:12.134Z,30.80
2019-06-26T19:21:45.039Z,30.70
2019-06-26T19:24:17.529Z,30.70
2019-06-26T19:26:49.932Z,30.70
2019-06-26T19:29:22.381Z,30.70
2019-06-26T19:31:54.714Z,30.70
2019-06-26T19:34:27.151Z,30.60
2019-06-26T19:36:59.626Z,30.60
2019-06-26T19:39:32.044Z,30.60
2019-06-26T19:42:04.520Z,30.50
2019-06-26T19:44:40.449Z,30.50
2019-06-26T19:47:12.884Z,30.50
2019-06-26T19:49:45.253Z,30.50
2019-06-26T19:52:17.688Z,30.40
2019-06-26T19:54:50.105Z,30.40
2019-06-26T19:57:22.536Z,30.40
2019-06-26T19:59:54.953Z,30.30
2019-06-26T20:02:27.377Z,30.30
2019-06-26T20:04:59.790Z,30.30
2019-06-26T20:07:32.270Z,30.20
2019-06-26T20:10:04.933Z,30.20
2019-06-26T20:12:37.365Z,30.20
2019-06-26T20:15:09.985Z,30.10
2019-06-26T20:17:42.493Z,30.10
2019-06-26T20:20:14.903Z,30.00
2019-06-26T20:22:47.305Z,30.00
2019-06-26T20:25:22.578Z,30.00
2019-06-26T20:27:57.256Z,30.00
2019-06-26T20:30:32.834Z,29.90
2019-06-26T20:33:05.274Z,29.90
2019-06-26T20:35:38.922Z,29.90
2019-06-26T20:38:11.726Z,29.80
2019-06-26T20:40:45.964Z,29.80
2019-06-26T20:43:18.199Z,29.80
2019-06-26T20:45:50.635Z,29.70
2019-06-26T20:48:23.076Z,29.70
2019-06-26T20:50:55.477Z,29.70
2019-06-26T20:53:28.134Z,29.70
2019-06-26T20:56:00.529Z,29.70
2019-06-26T20:58:32.960Z,29.60
2019-06-26T21:01:05.377Z,29.60
2019-06-26T21:03:37.820Z,29.60
2019-06-26T21:06:10.284Z,29.50
2019-06-26T21:08:42.716Z,29.50
2019-06-26T21:11:15.934Z,29.50
2019-06-26T21:13:48.537Z,29.50
2019-06-26T21:16:20.941Z,29.50
2019-06-26T21:18:53.371Z,29.40
2019-06-26T21:21:26.841Z,29.40
2019-06-26T21:23:59.203Z,29.40
2019-06-26T21:26:31.622Z,29.40
2019-06-26T21:29:04.051Z,29.40
2019-06-26T21:31:36.526Z,29.40
2019-06-26T21:34:08.980Z,29.30
2019-06-26T21:36:41.439Z,29.30
2019-06-26T21:39:13.876Z,29.30
2019-06-26T21:41:46.318Z,29.20
2019-06-26T21:44:18.673Z,29.20
2019-06-26T21:46:51.191Z,29.20
2019-06-26T21:49:23.619Z,29.20
2019-06-26T21:51:56.028Z,29.10
2019-06-26T21:54:28.450Z,29.10
2019-06-26T21:57:18.586Z,29.10
2019-06-26T22:00:09.284Z,29.00
2019-06-26T22:02:59.563Z,29.00
2019-06-26T22:05:33.607Z,28.90
2019-06-26T22:08:22.599Z,28.90
2019-06-26T22:10:56.684Z,28.90
2019-06-26T22:13:29.387Z,28.80
2019-06-26T22:16:01.956Z,28.80
2019-06-26T22:18:34.440Z,28.80
2019-06-26T22:21:06.889Z,28.80
2019-06-26T22:23:39.292Z,28.80
2019-06-26T22:26:14.121Z,28.80
2019-06-26T22:28:45.770Z,28.80
2019-06-26T22:31:18.218Z,28.80
2019-06-26T22:33:50.538Z,28.80
2019-06-26T22:36:22.975Z,28.80
2019-06-26T22:38:55.321Z,28.80
2019-06-26T22:41:27.781Z,28.80
2019-06-26T22:44:00.197Z,28.80
2019-06-26T22:46:32.644Z,28.80
2019-06-26T22:49:05.059Z,28.80
2019-06-26T22:51:37.564Z,28.80
2019-06-26T22:54:10.279Z,28.80
2019-06-26T22:56:42.732Z,28.80
2019-06-26T22:59:15.148Z,28.80
2019-06-26T23:01:47.595Z,28.80
2019-06-26T23:04:20.014Z,28.80
2019-06-26T23:06:52.549Z,28.80
2019-06-26T23:09:25.064Z,28.80
2019-06-26T23:11:57.495Z,28.80
2019-06-26T23:14:29.937Z,28.80
2019-06-26T23:17:02.378Z,28.80
2019-06-26T23:19:34.726Z,28.90
2019-06-26T23:22:07.208Z,28.90
2019-06-26T23:24:39.621Z,28.90
2019-06-26T23:27:12.064Z,28.90
2019-06-26T23:29:44.508Z,28.90
2019-06-26T23:32:16.948Z,28.90
2019-06-26T23:34:49.296Z,28.90
2019-06-26T23:37:21.733Z,28.90
2019-06-26T23:39:54.143Z,28.90
2019-06-26T23:42:26.607Z,28.90
2019-06-26T23:44:59.099Z,28.90
2019-06-26T23:47:31.535Z,28.90
2019-06-26T23:50:03.982Z,28.90
2019-06-26T23:52:36.427Z,28.90
2019-06-26T23:55:08.903Z,28.90
2019-06-26T23:57:54.660Z,28.90
